createdAt,value
2022-12-28T00:04:05.701Z,2.15
2022-12-28T00:09:10.833Z,1.80
2022-12-28T00:14:12.498Z,2.30
2022-12-28T00:19:16.039Z,2.47
2022-12-28T00:24:22.956Z,2.30
2022-12-28T00:29:24.624Z,1.90
2022-12-28T00:34:26.205Z,2.00
2022-12-28T00:39:27.745Z,1.92
2022-12-28T00:44:29.247Z,1.70
2022-12-28T00:49:30.710Z,1.90
2022-12-28T00:54:32.233Z,1.90
2022-12-28T00:59:33.826Z,2.58
2022-12-28T01:04:35.369Z,1.88
2022-12-28T01:09:36.839Z,2.47
2022-12-28T01:14:38.283Z,2.30
2022-12-28T01:19:39.868Z,2.50
2022-12-28T01:24:41.367Z,1.95
2022-12-28T01:29:42.930Z,1.95
2022-12-28T01:34:44.733Z,1.92
2022-12-28T01:39:47.167Z,1.70
2022-12-28T01:44:51.475Z,1.70
2022-12-28T01:49:56.816Z,1.92
2022-12-28T01:55:21.620Z,2.13
2022-12-28T02:00:25.065Z,1.92
2022-12-28T02:05:33.095Z,2.10
2022-12-28T02:10:42.327Z,2.42
2022-12-28T02:15:49.072Z,2.10
2022-12-28T02:21:05.811Z,2.90
2022-12-28T02:26:19.817Z,1.90
2022-12-28T02:31:26.258Z,1.90
2022-12-28T02:36:35.076Z,1.98
2022-12-28T02:41:41.342Z,1.70
2022-12-28T02:46:44.639Z,1.73
2022-12-28T02:52:09.127Z,1.75
2022-12-28T02:57:45.074Z,1.90
2022-12-28T03:03:11.571Z,2.70
2022-12-28T03:13:30.653Z,2.90
2022-12-28T03:18:34.303Z,3.10
2022-12-28T03:23:39.334Z,3.47
2022-12-28T03:28:43.974Z,3.50
2022-12-28T03:33:49.086Z,3.15
2022-12-28T03:39:13.598Z,3.17
2022-12-28T03:44:27.701Z,3.35
2022-12-28T03:49:29.716Z,3.30
2022-12-28T03:54:31.482Z,3.47
2022-12-28T03:59:33.233Z,2.88
2022-12-28T04:04:36.582Z,1.80
2022-12-28T04:09:38.240Z,2.10
2022-12-28T04:14:40.137Z,2.22
2022-12-28T04:19:41.698Z,1.90
2022-12-28T04:24:43.281Z,1.80
2022-12-28T04:29:45.746Z,1.65
2022-12-28T04:34:53.326Z,1.80
2022-12-28T04:39:57.281Z,2.15
2022-12-28T04:44:59.193Z,1.60
2022-12-28T04:50:00.666Z,1.50
2022-12-28T04:55:02.299Z,1.60
2022-12-28T05:00:04.287Z,1.70
2022-12-28T05:05:06.282Z,1.50
2022-12-28T05:10:08.267Z,1.85
2022-12-28T05:15:10.309Z,1.90
2022-12-28T05:20:12.017Z,1.48
2022-12-28T05:25:13.645Z,1.60
2022-12-28T05:30:15.192Z,1.70
2022-12-28T05:35:16.802Z,1.60
2022-12-28T05:40:18.379Z,1.50
2022-12-28T05:45:19.865Z,1.50
2022-12-28T05:50:21.350Z,1.50
2022-12-28T05:55:22.876Z,1.75
2022-12-28T06:00:24.479Z,1.70
2022-12-28T06:05:26.024Z,1.90
2022-12-28T06:10:27.630Z,1.77
2022-12-28T06:15:29.166Z,2.03
2022-12-28T06:20:30.655Z,1.83
2022-12-28T06:25:32.224Z,1.65
2022-12-28T06:30:33.815Z,2.00
2022-12-28T06:35:35.327Z,2.08
2022-12-28T06:41:10.978Z,1.90
2022-12-28T06:45:58.509Z,1.70
2022-12-28T06:51:03.966Z,2.13
2022-12-28T06:56:08.462Z,1.75
2022-12-28T07:01:19.796Z,1.90
2022-12-28T07:06:23.643Z,2.58
2022-12-28T07:11:25.223Z,2.10
2022-12-28T07:21:34.045Z,2.30
2022-12-28T07:26:37.649Z,1.90
2022-12-28T07:31:45.292Z,1.70
2022-12-28T07:36:48.703Z,2.25
2022-12-28T07:41:50.222Z,2.10
2022-12-28T07:46:56.274Z,1.80
2022-12-28T07:51:57.763Z,1.90
2022-12-28T07:56:59.460Z,1.70
2022-12-28T08:02:01.310Z,1.90
2022-12-28T08:07:02.907Z,2.00
2022-12-28T08:12:04.830Z,1.80
2022-12-28T08:17:06.529Z,2.00
2022-12-28T08:22:08.006Z,2.30
2022-12-28T08:27:09.504Z,2.13
2022-12-28T08:32:11.049Z,2.17
2022-12-28T08:37:12.558Z,2.20
2022-12-28T08:42:14.108Z,2.15
2022-12-28T08:47:15.690Z,2.08
2022-12-28T08:52:17.268Z,2.10
2022-12-28T08:57:18.844Z,2.10
2022-12-28T09:02:20.779Z,2.22
2022-12-28T09:07:22.485Z,1.92
2022-12-28T09:12:24.054Z,1.85
2022-12-28T09:17:26.094Z,2.17
2022-12-28T09:22:27.746Z,1.67
2022-12-28T09:27:29.306Z,2.08
2022-12-28T09:32:30.835Z,2.00
2022-12-28T09:37:32.405Z,2.10
2022-12-28T09:42:41.199Z,2.22
2022-12-28T09:47:51.529Z,2.10
2022-12-28T09:53:05.154Z,2.00
2022-12-28T09:58:15.087Z,2.05
2022-12-28T10:03:27.350Z,1.90
2022-12-28T10:08:29.533Z,1.80
2022-12-28T10:13:54.221Z,1.90
2022-12-28T10:18:56.544Z,2.05
2022-12-28T10:29:23.047Z,1.83
2022-12-28T10:34:24.999Z,2.20
2022-12-28T10:39:32.507Z,1.70
2022-12-28T10:55:33.589Z,1.30
2022-12-28T11:00:35.188Z,0.90
2022-12-28T11:03:21.192Z,2.35
2022-12-28T11:05:36.889Z,0.80
2022-12-28T11:10:38.670Z,1.10
2022-12-28T11:15:40.181Z,0.70
2022-12-28T11:20:50.729Z,0.70
2022-12-28T11:25:52.588Z,0.82
2022-12-28T11:30:54.307Z,0.75
2022-12-28T11:35:59.834Z,0.65
2022-12-28T11:41:01.827Z,0.60
2022-12-28T11:46:21.733Z,1.00
2022-12-28T11:51:23.172Z,0.63
2022-12-28T11:56:47.554Z,0.60
2022-12-28T12:01:53.967Z,0.70
2022-12-28T12:06:55.445Z,0.70
2022-12-28T12:11:59.046Z,0.73
2022-12-28T12:17:05.986Z,1.05
2022-12-28T12:22:28.631Z,0.95
2022-12-28T12:27:30.081Z,0.60
2022-12-28T12:32:55.859Z,1.05
2022-12-28T12:38:25.374Z,0.75
2022-12-28T12:43:48.300Z,0.70
2022-12-28T12:49:20.740Z,1.02
2022-12-28T12:54:55.123Z,0.80
2022-12-28T13:00:01.809Z,0.80
2022-12-28T13:05:05.198Z,0.75
2022-12-28T13:10:14.501Z,1.10
2022-12-28T13:15:17.438Z,0.82
2022-12-28T13:20:21.235Z,1.00
2022-12-28T13:25:25.060Z,0.90
2022-12-28T13:30:27.812Z,1.00
2022-12-28T13:35:33.401Z,0.90
2022-12-28T13:40:37.700Z,1.33
2022-12-28T13:45:39.553Z,1.05
2022-12-28T13:50:41.210Z,1.00
2022-12-28T13:55:51.583Z,0.90
2022-12-28T14:00:55.541Z,0.90
2022-12-28T14:05:59.411Z,1.08
2022-12-28T14:11:02.241Z,0.98
2022-12-28T14:16:04.851Z,1.00
2022-12-28T14:21:06.816Z,0.80
2022-12-28T14:26:18.406Z,0.80
2022-12-28T14:31:31.609Z,0.88
2022-12-28T14:36:48.937Z,0.75
2022-12-28T14:41:50.932Z,1.00
2022-12-28T14:46:52.562Z,0.80
2022-12-28T14:52:09.828Z,1.05
2022-12-28T14:57:22.526Z,1.08
2022-12-28T15:02:33.289Z,1.25
2022-12-28T15:07:35.248Z,1.00
2022-12-28T15:12:36.716Z,1.00
2022-12-28T15:17:38.347Z,1.17
2022-12-28T15:22:40.098Z,1.10
2022-12-28T15:27:41.737Z,1.95
2022-12-28T15:32:43.434Z,1.20
2022-12-28T15:37:44.997Z,1.63
2022-12-28T15:42:46.552Z,1.90
2022-12-28T15:47:48.037Z,1.70
2022-12-28T15:52:49.621Z,1.25
2022-12-28T15:57:51.128Z,1.27
2022-12-28T16:02:52.801Z,1.70
2022-12-28T16:07:54.364Z,1.50
2022-12-28T16:12:55.883Z,1.33
2022-12-28T16:17:57.816Z,1.50
2022-12-28T16:22:59.450Z,1.30
2022-12-28T16:28:01.018Z,1.40
2022-12-28T16:33:03.053Z,2.00
2022-12-28T16:38:06.152Z,1.80
2022-12-28T16:43:07.911Z,1.90
2022-12-28T16:48:15.721Z,1.80
2022-12-28T16:53:22.805Z,2.05
2022-12-28T16:58:26.106Z,1.53
2022-12-28T17:03:27.620Z,1.60
2022-12-28T17:08:29.807Z,1.85
2022-12-28T17:13:31.283Z,1.70
2022-12-28T17:18:32.965Z,1.77
2022-12-28T17:23:34.548Z,1.90
2022-12-28T17:28:36.469Z,1.75
2022-12-28T17:33:40.444Z,2.00
2022-12-28T17:38:42.157Z,2.33
2022-12-28T17:43:52.063Z,1.90
2022-12-28T17:48:57.819Z,1.95
2022-12-28T17:53:59.402Z,1.75
2022-12-28T17:59:00.999Z,2.45
2022-12-28T18:04:02.551Z,2.30
2022-12-28T18:09:04.439Z,1.98
2022-12-28T18:14:06.004Z,2.28
2022-12-28T18:19:07.584Z,2.08
2022-12-28T18:24:12.654Z,2.30
2022-12-28T18:29:14.177Z,1.90
2022-12-28T18:34:15.688Z,2.38
2022-12-28T18:39:17.279Z,2.50
2022-12-28T18:44:19.002Z,2.60
2022-12-28T18:49:21.019Z,2.92
2022-12-28T18:54:22.657Z,2.60
2022-12-28T18:59:24.640Z,2.50
2022-12-28T19:04:26.721Z,4.32
2022-12-28T19:09:28.693Z,3.00
2022-12-28T19:14:30.247Z,2.90
2022-12-28T19:19:31.969Z,3.40
2022-12-28T19:24:33.683Z,2.80
2022-12-28T19:29:35.321Z,2.88
2022-12-28T19:34:36.926Z,2.30
2022-12-28T19:39:38.502Z,2.85
2022-12-28T19:44:40.035Z,2.30
2022-12-28T19:49:41.721Z,5.13
2022-12-28T19:54:43.223Z,6.25
2022-12-28T19:59:44.790Z,10.43
2022-12-28T20:04:46.459Z,4.85
2022-12-28T20:09:49.965Z,2.40
2022-12-28T20:14:51.526Z,2.30
2022-12-28T20:19:53.110Z,2.80
2022-12-28T20:24:54.934Z,2.00
2022-12-28T20:29:56.983Z,2.10
2022-12-28T20:34:58.762Z,3.80
2022-12-28T20:40:00.532Z,2.03
2022-12-28T20:45:02.154Z,4.00
2022-12-28T20:50:03.962Z,2.45
2022-12-28T20:55:05.989Z,3.55
2022-12-28T21:00:09.082Z,2.25
2022-12-28T21:05:11.290Z,3.53
2022-12-28T21:10:13.784Z,1.88
2022-12-28T21:15:16.412Z,8.70
2022-12-28T21:20:18.373Z,9.30
2022-12-28T21:25:20.030Z,3.72
2022-12-28T21:30:21.601Z,2.42
2022-12-28T21:35:26.727Z,1.77
2022-12-28T21:40:30.530Z,1.83
2022-12-28T21:45:32.122Z,1.50
2022-12-28T21:50:34.073Z,1.60
2022-12-28T21:55:35.764Z,1.77
2022-12-28T22:00:37.396Z,1.50
2022-12-28T22:05:39.096Z,1.40
2022-12-28T22:10:40.706Z,2.30
2022-12-28T22:15:42.290Z,1.60
2022-12-28T22:20:44.243Z,2.97
2022-12-28T22:25:45.827Z,2.58
2022-12-28T22:30:47.474Z,1.55
2022-12-28T22:35:49.047Z,5.10
2022-12-28T22:40:58.559Z,2.45
2022-12-28T22:46:05.481Z,1.90
2022-12-28T22:51:10.449Z,2.50
2022-12-28T22:56:14.364Z,2.05
2022-12-28T23:01:18.463Z,1.90
2022-12-28T23:06:20.189Z,2.60
2022-12-28T23:11:21.813Z,2.13
2022-12-28T23:16:23.532Z,2.00
2022-12-28T23:21:25.211Z,2.40
2022-12-28T23:26:26.752Z,2.10
2022-12-28T23:31:28.420Z,2.10
2022-12-28T23:36:30.016Z,2.38
2022-12-28T23:41:31.553Z,2.10
2022-12-28T23:46:33.261Z,2.90
2022-12-28T23:51:34.792Z,3.33
2022-12-28T23:56:36.353Z,2.30
